Time;durP1;ratioP1;P1;durP2;ratioP2;P2;SDS_P1;SDS_P2;PMS_P1;PMS_P2;Temp;Humidity;BMP_temperature;BMP_pressure;BME280_temperature;BME280_humidity;BME280_pressure;Samples;Min_cycle;Max_cycle;Signal;HPM_P1;HPM_P2
2022/07/07 00:00:07;;;;;;;10.38;2.90;;;16.90;99.90;;;;;;6254761;22;20098;-76
2022/07/07 00:02:33;;;;;;;8.38;2.53;;;16.80;99.90;;;;;;6254373;22;20472;-76
2022/07/07 00:04:59;;;;;;;9.80;2.58;;;16.70;99.90;;;;;;6255302;22;20007;-76
2022/07/07 00:07:25;;;;;;;9.70;2.38;;;16.60;99.90;;;;;;6282034;22;20086;-73
2022/07/07 00:09:51;;;;;;;12.63;3.50;;;16.50;99.90;;;;;;6231782;22;20030;-74
2022/07/07 00:12:17;;;;;;;10.70;2.90;;;16.40;99.90;;;;;;6256541;22;20022;-74
2022/07/07 00:14:43;;;;;;;10.40;2.95;;;16.40;99.90;;;;;;6282175;22;20011;-73
2022/07/07 00:17:09;;;;;;;14.82;3.10;;;16.30;99.90;;;;;;6256424;22;20018;-75
2022/07/07 00:19:34;;;;;;;12.85;3.15;;;16.30;99.90;;;;;;6282039;22;20022;-76
2022/07/07 00:22:00;;;;;;;10.15;3.20;;;16.30;99.90;;;;;;6282497;22;20015;-76
2022/07/07 00:24:26;;;;;;;18.45;3.50;;;16.30;99.90;;;;;;6282015;22;20341;-74
2022/07/07 00:26:52;;;;;;;14.32;3.50;;;16.30;99.90;;;;;;6282096;22;20011;-74
2022/07/07 00:29:17;;;;;;;9.38;3.20;;;16.20;99.90;;;;;;6281803;22;20011;-77
2022/07/07 00:31:43;;;;;;;16.48;3.55;;;16.20;99.90;;;;;;6282309;22;20011;-74
2022/07/07 00:34:09;;;;;;;11.80;3.22;;;16.20;99.90;;;;;;6282090;22;20376;-75
2022/07/07 00:36:39;;;;;;;13.73;3.22;;;16.20;99.90;;;;;;6281934;22;20073;-76
2022/07/07 00:39:05;;;;;;;10.15;2.60;;;16.20;99.90;;;;;;6256293;22;20499;-73
2022/07/07 00:41:33;;;;;;;11.35;3.13;;;16.20;99.90;;;;;;6281999;22;20022;-77
2022/07/07 00:43:59;;;;;;;12.38;3.22;;;16.30;99.90;;;;;;6236114;22;20057;-75
2022/07/07 00:46:35;;;;;;;12.43;2.85;;;16.30;99.90;;;;;;6285774;22;20016;-73
2022/07/07 00:49:00;;;;;;;17.15;3.10;;;16.20;99.90;;;;;;6281830;22;20097;-75
2022/07/07 00:51:26;;;;;;;13.98;2.90;;;16.30;99.90;;;;;;6281874;22;20141;-75
2022/07/07 00:53:52;;;;;;;15.13;3.33;;;16.30;99.90;;;;;;6256178;22;20337;-77
2022/07/07 00:56:18;;;;;;;19.40;4.28;;;16.30;99.90;;;;;;6281427;22;20085;-75
2022/07/07 00:58:44;;;;;;;11.27;2.88;;;16.30;99.90;;;;;;6256075;22;20080;-76
2022/07/07 01:01:09;;;;;;;;;;;16.30;99.90;;;;;;6282483;22;20011;-75
2022/07/07 01:03:35;;;;;;;14.73;3.78;;;16.30;99.90;;;;;;6282017;22;19938;-75
2022/07/07 01:06:04;;;;;;;17.95;3.65;;;16.30;99.90;;;;;;6282081;22;20084;-75
2022/07/07 01:08:30;;;;;;;20.67;4.30;;;16.30;99.90;;;;;;6308834;22;20007;-77
2022/07/07 01:10:58;;;;;;;13.77;3.15;;;16.30;99.90;;;;;;6232012;22;20019;-73
2022/07/07 01:13:24;;;;;;;15.50;2.92;;;16.40;99.90;;;;;;6281873;22;20047;-75
2022/07/07 01:15:50;;;;;;;18.20;3.83;;;16.30;99.90;;;;;;6282212;22;20383;-73
2022/07/07 01:18:16;;;;;;;18.13;3.30;;;16.40;99.90;;;;;;6255305;22;20138;-76
2022/07/07 01:20:46;;;;;;;20.45;3.65;;;16.40;99.90;;;;;;6231062;22;20104;-75
2022/07/07 01:23:13;;;;;;;25.65;3.80;;;16.40;99.90;;;;;;6255976;22;20022;-75
2022/07/07 01:25:39;;;;;;;19.33;3.35;;;16.40;99.90;;;;;;6256235;22;20046;-73
2022/07/07 01:28:04;;;;;;;12.43;2.33;;;16.30;99.90;;;;;;6250453;22;20022;-74
2022/07/07 01:30:33;;;;;;;15.77;3.10;;;16.30;99.90;;;;;;6251114;22;20041;-76
2022/07/07 01:32:58;;;;;;;11.88;2.17;;;16.30;99.90;;;;;;6251022;22;20012;-75
2022/07/07 01:35:24;;;;;;;15.30;3.05;;;16.30;99.90;;;;;;6250708;22;20335;-75
2022/07/07 01:37:50;;;;;;;7.85;2.33;;;16.20;99.90;;;;;;6250929;22;20015;-76
2022/07/07 01:40:16;;;;;;;8.25;1.92;;;16.20;99.90;;;;;;6250556;22;20012;-75
2022/07/07 01:42:41;;;;;;;11.50;2.05;;;16.20;99.90;;;;;;6278019;22;20020;-74
2022/07/07 01:45:08;;;;;;;10.65;2.33;;;16.20;99.90;;;;;;6251471;22;20051;-76
2022/07/07 01:47:33;;;;;;;;;;;16.20;99.90;;;;;;6251066;22;20073;-73
2022/07/07 01:49:59;;;;;;;11.02;2.05;;;16.10;99.90;;;;;;6276362;22;19919;-75
2022/07/07 01:52:25;;;;;;;14.77;2.90;;;16.20;99.90;;;;;;6276041;22;20016;-76
2022/07/07 01:54:50;;;;;;;15.05;2.60;;;16.10;99.90;;;;;;6251243;22;20015;-75
2022/07/07 01:57:16;;;;;;;11.50;2.58;;;16.10;99.90;;;;;;6250293;22;20342;-75
2022/07/07 01:59:42;;;;;;;13.68;3.10;;;16.10;99.90;;;;;;6250460;22;20019;-75
2022/07/07 02:02:08;;;;;;;14.35;3.08;;;16.10;99.90;;;;;;6276390;22;20011;-77
2022/07/07 02:04:34;;;;;;;19.50;3.30;;;16.10;99.90;;;;;;6250507;22;20011;-76
2022/07/07 02:06:59;;;;;;;16.85;3.13;;;16.10;99.90;;;;;;6250848;22;20015;-75
2022/07/07 02:09:25;;;;;;;16.85;3.53;;;16.10;99.90;;;;;;6250274;22;20089;-73
2022/07/07 02:11:51;;;;;;;16.42;3.15;;;16.10;99.90;;;;;;6250507;22;20023;-78
2022/07/07 02:14:17;;;;;;;20.92;3.47;;;16.10;99.90;;;;;;6280026;22;20403;-76
2022/07/07 02:16:43;;;;;;;15.55;2.95;;;16.10;99.90;;;;;;6279388;22;20058;-77
2022/07/07 02:19:08;;;;;;;15.68;2.95;;;16.20;99.90;;;;;;6275856;22;20012;-77
2022/07/07 02:21:35;;;;;;;13.05;3.33;;;16.10;99.90;;;;;;6250529;22;20018;-75
2022/07/07 02:24:04;;;;;;;19.70;3.95;;;16.10;99.90;;;;;;6275742;22;20090;-74
2022/07/07 02:26:33;;;;;;;15.13;2.70;;;16.10;99.90;;;;;;6275871;22;20043;-74
2022/07/07 02:28:58;;;;;;;14.50;2.53;;;16.20;99.90;;;;;;6275391;22;20022;-75
2022/07/07 02:31:24;;;;;;;25.98;2.83;;;16.10;99.90;;;;;;6275593;22;20051;-74
2022/07/07 02:33:50;;;;;;;12.15;2.17;;;16.10;99.90;;;;;;6250388;22;20026;-75
2022/07/07 02:36:16;;;;;;;13.52;1.98;;;16.10;99.90;;;;;;6275245;22;20087;-76
2022/07/07 02:38:41;;;;;;;20.42;2.42;;;16.10;99.90;;;;;;6250118;22;20388;-74
2022/07/07 02:41:07;;;;;;;14.80;3.53;;;16.00;99.90;;;;;;6250148;22;20082;-75
2022/07/07 02:43:33;;;;;;;19.58;3.28;;;16.00;99.90;;;;;;6275528;22;20007;-74
2022/07/07 02:45:59;;;;;;;12.88;2.40;;;16.00;99.90;;;;;;6249885;22;20435;-73
2022/07/07 02:48:26;;;;;;;9.63;2.20;;;16.00;99.90;;;;;;6275887;22;20026;-74
2022/07/07 02:50:52;;;;;;;15.40;2.08;;;16.10;99.90;;;;;;6275349;22;20019;-75
2022/07/07 02:53:19;;;;;;;14.45;2.53;;;16.10;99.90;;;;;;6275392;22;20350;-75
2022/07/07 02:55:45;;;;;;;13.00;1.80;;;16.00;99.90;;;;;;6275409;22;20316;-75
2022/07/07 02:58:19;;;;;;;;;;;16.00;99.90;;;;;;6250178;22;20073;-74
2022/07/07 03:00:46;;;;;;;11.93;1.95;;;16.00;99.90;;;;;;6275489;22;19922;-75
2022/07/07 03:03:11;;;;;;;8.77;2.00;;;16.00;99.90;;;;;;6249862;22;20020;-74
2022/07/07 03:05:37;;;;;;;14.05;1.83;;;16.00;99.90;;;;;;6275298;22;20030;-75
2022/07/07 03:08:03;;;;;;;11.98;2.00;;;16.00;99.90;;;;;;6275201;22;20019;-75
2022/07/07 03:10:29;;;;;;;8.85;2.03;;;15.90;99.90;;;;;;6275587;22;20015;-75
2022/07/07 03:12:55;;;;;;;11.00;2.38;;;15.90;99.90;;;;;;6249845;22;20022;-73
2022/07/07 03:15:21;;;;;;;8.40;1.35;;;15.90;99.90;;;;;;6275135;22;20026;-74
2022/07/07 03:17:48;;;;;;;11.43;2.38;;;15.90;99.90;;;;;;6249931;22;20008;-74
2022/07/07 03:20:15;;;;;;;7.65;1.73;;;15.80;99.90;;;;;;6249783;22;20125;-73
2022/07/07 03:22:42;;;;;;;12.75;2.50;;;15.80;99.90;;;;;;6249869;22;20020;-76
2022/07/07 03:25:10;;;;;;;15.13;1.98;;;15.80;99.90;;;;;;6250030;22;20019;-75
2022/07/07 03:27:36;;;;;;;17.30;2.00;;;15.80;99.90;;;;;;6249472;22;20058;-76
2022/07/07 03:30:04;;;;;;;9.88;1.80;;;15.80;99.90;;;;;;6277041;22;20019;-75
2022/07/07 03:32:30;;;;;;;12.27;2.00;;;15.70;99.90;;;;;;6275492;22;20050;-74
2022/07/07 03:34:56;;;;;;;12.23;2.70;;;15.70;99.90;;;;;;6275904;22;20090;-75
2022/07/07 03:37:22;;;;;;;12.32;1.88;;;15.70;99.90;;;;;;6249762;22;20043;-76
2022/07/07 03:39:47;;;;;;;13.32;2.00;;;15.70;99.90;;;;;;6249774;22;20038;-73
2022/07/07 03:42:13;;;;;;;13.55;2.22;;;15.70;99.90;;;;;;6250004;22;20319;-75
2022/07/07 03:44:39;;;;;;;12.82;1.80;;;15.70;99.90;;;;;;6279202;22;20020;-74
2022/07/07 03:47:05;;;;;;;11.02;2.05;;;15.60;99.90;;;;;;6280834;22;20051;-76
2022/07/07 03:49:31;;;;;;;7.35;1.67;;;15.50;99.90;;;;;;6249531;22;20129;-75
2022/07/07 03:51:57;;;;;;;8.80;1.40;;;15.50;99.90;;;;;;6250047;22;20459;-75
2022/07/07 03:54:23;;;;;;;6.43;1.27;;;15.50;99.90;;;;;;6275679;22;20014;-77
2022/07/07 03:56:49;;;;;;;8.93;1.10;;;15.50;99.90;;;;;;6250426;22;20457;-74
2022/07/07 03:59:14;;;;;;;6.47;1.38;;;15.50;99.90;;;;;;6249729;22;20098;-76
2022/07/07 04:01:45;;;;;;;6.95;0.90;;;15.50;99.90;;;;;;6249868;22;20101;-73
2022/07/07 04:04:15;;;;;;;6.72;1.20;;;15.50;99.90;;;;;;6249864;22;20471;-74
2022/07/07 04:06:42;;;;;;;9.52;1.60;;;15.40;99.90;;;;;;6275074;22;20473;-76
2022/07/07 04:09:08;;;;;;;12.75;2.28;;;15.40;99.90;;;;;;6249870;22;20020;-74
2022/07/07 04:11:34;;;;;;;14.68;2.25;;;15.40;99.90;;;;;;6224696;22;20022;-74
2022/07/07 04:14:01;;;;;;;10.80;2.00;;;15.40;99.90;;;;;;6249807;22;20361;-74
2022/07/07 04:16:29;;;;;;;14.10;2.60;;;15.40;99.90;;;;;;6274792;22;20388;-74
2022/07/07 04:18:58;;;;;;;12.32;2.20;;;15.40;99.90;;;;;;6249770;22;20378;-74
2022/07/07 04:21:24;;;;;;;13.23;3.75;;;15.40;99.90;;;;;;6249722;22;20013;-76
2022/07/07 04:23:50;;;;;;;15.48;2.65;;;15.40;99.90;;;;;;6249739;22;20039;-75
2022/07/07 04:26:15;;;;;;;14.18;2.35;;;15.40;99.90;;;;;;6275279;22;20038;-74
2022/07/07 04:28:41;;;;;;;13.38;2.45;;;15.40;99.90;;;;;;6295933;22;20015;-75
2022/07/07 04:31:07;;;;;;;16.33;3.88;;;15.40;99.90;;;;;;6279942;22;20098;-75
2022/07/07 04:33:32;;;;;;;16.75;2.88;;;15.40;99.90;;;;;;6254657;22;20015;-77
2022/07/07 04:35:58;;;;;;;17.63;2.45;;;15.40;99.90;;;;;;6254830;22;20050;-74
2022/07/07 04:38:24;;;;;;;15.15;2.55;;;15.50;99.90;;;;;;6279803;22;20511;-75
2022/07/07 04:40:50;;;;;;;14.63;2.50;;;15.40;99.90;;;;;;6254758;22;20011;-74
2022/07/07 04:43:15;;;;;;;14.80;2.42;;;15.40;99.90;;;;;;6280344;22;20038;-75
2022/07/07 04:45:44;;;;;;;19.88;2.13;;;15.40;99.90;;;;;;6279835;22;20011;-74
2022/07/07 04:48:10;;;;;;;9.82;2.58;;;15.40;99.90;;;;;;6279929;22;20019;-74
2022/07/07 04:50:35;;;;;;;9.63;1.77;;;15.50;99.90;;;;;;6280359;22;20021;-75
2022/07/07 04:53:01;;;;;;;12.88;2.15;;;15.50;99.90;;;;;;6255354;22;20346;-73
2022/07/07 04:55:27;;;;;;;11.98;2.05;;;15.60;99.90;;;;;;6256203;22;20043;-74
2022/07/07 04:57:52;;;;;;;17.88;3.03;;;15.60;99.90;;;;;;6256380;22;20015;-75
2022/07/07 05:00:18;;;;;;;10.80;2.17;;;15.60;99.90;;;;;;6256587;22;20007;-75
2022/07/07 05:02:44;;;;;;;13.35;1.73;;;15.60;99.90;;;;;;6256328;22;20442;-74
2022/07/07 05:05:09;;;;;;;16.85;2.08;;;15.60;99.90;;;;;;6256466;22;20094;-76
2022/07/07 05:07:35;;;;;;;10.88;2.42;;;15.60;99.90;;;;;;6281907;22;20011;-75
2022/07/07 05:10:01;;;;;;;12.65;2.05;;;15.70;99.90;;;;;;6230754;22;20094;-76
2022/07/07 05:12:27;;;;;;;17.20;2.13;;;15.90;99.90;;;;;;6281505;22;20015;-76
2022/07/07 05:14:53;;;;;;;10.48;2.45;;;16.00;99.90;;;;;;6262799;22;20042;-74
2022/07/07 05:17:18;;;;;;;12.05;2.15;;;16.00;99.90;;;;;;6295058;22;20011;-74
2022/07/07 05:19:44;;;;;;;14.52;2.58;;;15.90;99.90;;;;;;6259839;22;20023;-77
2022/07/07 05:22:12;;;;;;;6.07;1.77;;;15.80;99.90;;;;;;6257159;22;20015;-75
2022/07/07 05:24:41;;;;;;;12.07;1.88;;;15.70;99.90;;;;;;6281956;22;20019;-77
2022/07/07 05:27:09;;;;;;;10.60;2.20;;;15.70;99.90;;;;;;6256304;22;20030;-76
2022/07/07 05:29:35;;;;;;;9.48;1.75;;;15.80;99.90;;;;;;6281466;22;20019;-74
2022/07/07 05:32:00;;;;;;;10.30;1.92;;;15.90;99.90;;;;;;6231033;22;20316;-75
2022/07/07 05:34:26;;;;;;;12.50;1.50;;;16.10;99.90;;;;;;6255838;22;20038;-75
2022/07/07 05:36:52;;;;;;;13.50;1.52;;;16.20;99.90;;;;;;6281033;22;20015;-74
2022/07/07 05:39:17;;;;;;;16.73;2.03;;;16.20;99.90;;;;;;6281355;22;20033;-75
2022/07/07 05:41:43;;;;;;;9.80;1.88;;;16.20;99.90;;;;;;6256005;22;20011;-74
2022/07/07 05:44:09;;;;;;;13.82;1.92;;;16.20;99.90;;;;;;6281249;22;20007;-75
2022/07/07 05:46:35;;;;;;;14.60;2.53;;;16.30;99.90;;;;;;6255954;22;20018;-75
2022/07/07 05:49:00;;;;;;;13.20;1.50;;;16.30;99.90;;;;;;6281111;22;20019;-75
2022/07/07 05:51:26;;;;;;;11.63;1.80;;;16.30;99.90;;;;;;6255865;22;20377;-76
2022/07/07 05:53:52;;;;;;;16.13;1.75;;;16.40;99.90;;;;;;6281685;22;20073;-74
2022/07/07 05:56:18;;;;;;;7.20;1.20;;;16.40;99.90;;;;;;6280906;22;20015;-76
2022/07/07 05:58:43;;;;;;;14.35;1.60;;;16.40;99.90;;;;;;6256001;22;20102;-76
2022/07/07 06:01:09;;;;;;;10.63;1.42;;;16.60;99.90;;;;;;6255886;22;20086;-76
2022/07/07 06:03:35;;;;;;;11.20;1.60;;;16.60;99.90;;;;;;6280929;22;20053;-75
2022/07/07 06:06:01;;;;;;;10.40;1.90;;;16.60;99.90;;;;;;6308360;22;20833;-75
2022/07/07 06:08:28;;;;;;;16.13;2.10;;;16.50;99.90;;;;;;6281620;22;20034;-74
2022/07/07 06:10:54;;;;;;;15.07;1.60;;;16.40;99.90;;;;;;6255493;22;20115;-75
2022/07/07 06:13:20;;;;;;;;;;;16.50;99.90;;;;;;6256328;22;20372;-75
2022/07/07 06:15:45;;;;;;;9.48;1.17;;;16.50;99.90;;;;;;6281127;22;19914;-75
2022/07/07 06:18:11;;;;;;;15.27;1.63;;;16.50;99.90;;;;;;6281277;22;20023;-75
2022/07/07 06:20:37;;;;;;;9.65;1.38;;;16.50;99.90;;;;;;6281312;22;20438;-75
2022/07/07 06:23:03;;;;;;;9.15;2.03;;;16.50;99.90;;;;;;6281056;22;20011;-74
2022/07/07 06:25:28;;;;;;;9.32;1.45;;;16.50;99.90;;;;;;6255864;22;20113;-75
2022/07/07 06:27:54;;;;;;;8.50;1.65;;;16.50;99.90;;;;;;6255389;22;20011;-74
2022/07/07 06:30:20;;;;;;;5.57;1.00;;;16.50;99.90;;;;;;6255600;22;20022;-74
2022/07/07 06:32:46;;;;;;;10.20;2.05;;;16.40;99.90;;;;;;6281161;22;20011;-74
2022/07/07 06:35:13;;;;;;;3.83;1.25;;;16.40;99.90;;;;;;6280733;22;20449;-72
2022/07/07 06:37:39;;;;;;;5.68;0.90;;;16.40;99.90;;;;;;6256294;22;20043;-72
2022/07/07 06:40:05;;;;;;;14.65;2.35;;;16.60;99.90;;;;;;6280831;22;20322;-73
2022/07/07 06:42:31;;;;;;;6.00;1.38;;;17.00;99.90;;;;;;6255491;22;20018;-73
2022/07/07 06:44:57;;;;;;;7.60;1.58;;;17.30;99.90;;;;;;6255487;22;20086;-72
2022/07/07 06:47:22;;;;;;;8.35;1.95;;;17.30;99.90;;;;;;6280983;22;20019;-73
2022/07/07 06:49:48;;;;;;;7.72;1.80;;;17.40;99.90;;;;;;6280709;22;20018;-73
2022/07/07 06:52:14;;;;;;;7.72;1.50;;;17.40;99.90;;;;;;6280989;22;20394;-74
2022/07/07 06:54:40;;;;;;;10.88;2.00;;;17.30;99.90;;;;;;6280632;22;20019;-72
2022/07/07 06:57:09;;;;;;;20.73;2.97;;;17.30;99.90;;;;;;6255346;22;20325;-75
2022/07/07 06:59:52;;;;;;;13.18;2.08;;;17.10;99.90;;;;;;6280963;22;20169;-78
2022/07/07 07:02:19;;;;;;;8.65;1.40;;;17.20;99.90;;;;;;6308309;22;20524;-74
2022/07/07 07:04:46;;;;;;;14.30;2.55;;;17.10;99.90;;;;;;6255772;22;20007;-73
2022/07/07 07:07:12;;;;;;;6.70;1.70;;;17.10;99.90;;;;;;6255709;22;20430;-75
2022/07/07 07:09:38;;;;;;;11.32;1.90;;;17.30;99.90;;;;;;6280960;22;20024;-71
2022/07/07 07:12:07;;;;;;;11.68;2.15;;;17.60;99.90;;;;;;6281572;22;20157;-73
2022/07/07 07:14:33;;;;;;;9.85;3.00;;;17.80;99.90;;;;;;6264172;22;20067;-71
2022/07/07 07:16:59;;;;;;;5.50;1.40;;;17.50;99.90;;;;;;6290958;22;20046;-74
2022/07/07 07:19:24;;;;;;;4.97;0.95;;;17.30;99.90;;;;;;6285465;22;20014;-74
2022/07/07 07:21:50;;;;;;;8.63;1.20;;;16.90;99.90;;;;;;6281069;22;20025;-72
2022/07/07 07:24:16;;;;;;;5.93;1.30;;;16.80;99.90;;;;;;6255434;22;20376;-74
2022/07/07 07:26:42;;;;;;;5.43;1.15;;;16.80;99.90;;;;;;6280525;22;20007;-70
2022/07/07 07:29:07;;;;;;;6.40;1.17;;;16.80;99.90;;;;;;6276031;22;20015;-72
2022/07/07 07:31:42;;;;;;;6.55;1.13;;;17.00;99.90;;;;;;6280961;22;20105;-68
2022/07/07 07:34:08;;;;;;;9.93;2.13;;;17.20;99.90;;;;;;6280796;22;20014;-71
2022/07/07 07:36:34;;;;;;;17.25;2.10;;;17.20;99.90;;;;;;6255100;22;20016;-72
2022/07/07 07:39:00;;;;;;;8.63;2.10;;;17.40;99.90;;;;;;6307762;22;20019;-72
2022/07/07 07:41:26;;;;;;;14.70;1.90;;;17.60;99.90;;;;;;6280365;22;20022;-72
2022/07/07 07:43:52;;;;;;;17.35;2.25;;;18.00;99.90;;;;;;6280101;22;20015;-72
2022/07/07 07:46:19;;;;;;;14.25;2.58;;;18.10;99.90;;;;;;6254509;22;20018;-73
2022/07/07 07:48:45;;;;;;;11.45;2.10;;;18.00;99.90;;;;;;6280162;22;20349;-73
2022/07/07 07:51:11;;;;;;;13.40;2.60;;;17.90;99.90;;;;;;6254772;22;20043;-73
2022/07/07 07:53:36;;;;;;;12.05;2.17;;;17.90;99.90;;;;;;6254909;22;20388;-73
2022/07/07 07:56:02;;;;;;;14.65;2.45;;;18.00;99.90;;;;;;6254907;22;20026;-72
2022/07/07 07:58:28;;;;;;;16.00;2.85;;;18.20;99.90;;;;;;6280525;22;20015;-71
2022/07/07 08:00:54;;;;;;;13.52;2.20;;;18.40;99.90;;;;;;6280210;22;20019;-73
2022/07/07 08:03:19;;;;;;;11.93;2.15;;;18.40;99.90;;;;;;6254716;22;20012;-73
2022/07/07 08:05:45;;;;;;;8.75;1.58;;;18.20;99.90;;;;;;6279938;22;20046;-72
2022/07/07 08:08:11;;;;;;;16.13;3.22;;;18.10;99.90;;;;;;6280138;22;20102;-73
2022/07/07 08:10:37;;;;;;;18.45;2.05;;;18.00;99.90;;;;;;6280048;22;20081;-72
2022/07/07 08:13:02;;;;;;;9.23;1.60;;;18.00;99.90;;;;;;6254808;22;20026;-73
2022/07/07 08:15:28;;;;;;;13.70;2.20;;;18.10;99.90;;;;;;6280045;22;20068;-73
2022/07/07 08:17:54;;;;;;;8.48;1.75;;;18.20;99.90;;;;;;6254709;22;20022;-73
2022/07/07 08:20:20;;;;;;;16.73;2.10;;;18.30;99.90;;;;;;6280424;22;20022;-73
2022/07/07 08:22:45;;;;;;;10.52;1.77;;;18.40;99.90;;;;;;6279937;22;20012;-71
2022/07/07 08:25:11;;;;;;;18.13;2.20;;;18.30;99.90;;;;;;6229257;22;20475;-71
2022/07/07 08:27:37;;;;;;;22.45;2.88;;;18.10;99.90;;;;;;6281451;22;20322;-72
2022/07/07 08:30:05;;;;;;;25.08;3.03;;;17.90;99.90;;;;;;6256768;22;20038;-74
2022/07/07 08:32:31;;;;;;;5.18;1.30;;;18.10;99.90;;;;;;6231608;22;20026;-73
2022/07/07 08:34:56;;;;;;;14.48;1.40;;;18.00;99.90;;;;;;6282617;22;20011;-72
2022/07/07 08:37:22;;;;;;;5.22;1.17;;;17.90;99.90;;;;;;6256585;22;20011;-73
2022/07/07 08:39:48;;;;;;;6.03;1.15;;;17.80;99.90;;;;;;6256260;22;20506;-74
2022/07/07 08:42:14;;;;;;;20.17;1.65;;;17.80;99.90;;;;;;6283322;22;20086;-74
2022/07/07 08:44:40;;;;;;;9.63;1.73;;;18.00;99.90;;;;;;6286639;22;20020;-72
2022/07/07 08:47:05;;;;;;;13.98;1.50;;;18.20;99.90;;;;;;6287642;22;20345;-73
2022/07/07 08:49:31;;;;;;;20.60;1.92;;;18.20;99.90;;;;;;6281806;22;20019;-73
2022/07/07 08:51:58;;;;;;;11.00;1.70;;;18.30;99.90;;;;;;6309376;22;20034;-72
2022/07/07 08:54:26;;;;;;;12.13;2.40;;;18.20;99.90;;;;;;6282130;22;20023;-73
2022/07/07 08:56:53;;;;;;;18.35;1.92;;;18.40;99.90;;;;;;6281596;22;20015;-74
2022/07/07 08:59:19;;;;;;;17.45;2.38;;;18.40;99.90;;;;;;6256174;22;20493;-72
2022/07/07 09:01:59;;;;;;;14.27;1.83;;;18.40;99.90;;;;;;6281827;22;20050;-74
2022/07/07 09:04:26;;;;;;;12.20;2.15;;;18.10;99.90;;;;;;6281606;22;20501;-74
2022/07/07 09:07:00;;;;;;;12.05;2.10;;;18.00;99.90;;;;;;6230546;22;20026;-72
2022/07/07 09:09:49;;;;;;;7.85;1.30;;;18.00;99.90;;;;;;6256217;22;20015;-72
2022/07/07 09:12:17;;;;;;;6.55;1.33;;;18.20;99.90;;;;;;6309194;22;20011;-72
2022/07/07 09:14:49;;;;;;;4.10;0.95;;;18.20;99.90;;;;;;6282029;22;20015;-74
2022/07/07 09:17:58;;;;;;;7.50;1.00;;;18.40;99.90;;;;;;6256065;22;20008;-75
2022/07/07 09:20:24;;;;;;;22.65;1.58;;;18.50;99.90;;;;;;6255910;22;20011;-72
2022/07/07 09:22:54;;;;;;;8.27;1.40;;;18.20;99.90;;;;;;6281446;22;20136;-72
2022/07/07 09:25:23;;;;;;;7.90;1.95;;;17.80;99.90;;;;;;6256226;22;20012;-75
2022/07/07 09:27:53;;;;;;;11.95;1.65;;;17.60;99.90;;;;;;6256059;22;20337;-75
2022/07/07 09:30:40;;;;;;;9.73;1.58;;;17.50;99.90;;;;;;6251780;22;20015;-73
2022/07/07 09:33:36;;;;;;;14.43;2.10;;;17.40;99.90;;;;;;6256146;22;20019;-75
2022/07/07 09:39:12;;;;;;;22.25;3.10;;;17.30;99.90;;;;;;6280765;22;20054;-73
2022/07/07 09:41:39;;;;;;;15.57;2.50;;;17.60;99.90;;;;;;6281558;22;20046;-71
2022/07/07 09:44:05;;;;;;;13.57;2.88;;;17.60;99.90;;;;;;6281495;22;20015;-73
2022/07/07 09:46:33;;;;;;;14.32;2.17;;;17.70;99.90;;;;;;6255480;22;20088;-73
2022/07/07 09:49:02;;;;;;;15.38;2.60;;;17.70;99.90;;;;;;6255913;22;20034;-73
2022/07/07 09:51:32;;;;;;;10.70;2.25;;;17.70;99.90;;;;;;6254516;22;20154;-72
2022/07/07 09:54:10;;;;;;;14.93;2.72;;;17.70;99.90;;;;;;6281296;22;20094;-72
2022/07/07 09:56:39;;;;;;;15.80;2.88;;;17.70;99.90;;;;;;6254211;22;20076;-75
2022/07/07 09:59:08;;;;;;;11.88;2.55;;;17.50;99.90;;;;;;6255432;22;20015;-74
2022/07/07 10:01:40;;;;;;;14.85;2.58;;;17.40;99.90;;;;;;6230617;22;20436;-72
2022/07/07 10:04:09;;;;;;;15.85;2.42;;;17.20;99.90;;;;;;6281588;22;20079;-74
2022/07/07 10:06:38;;;;;;;18.92;3.00;;;17.10;99.90;;;;;;6255415;22;20457;-72
2022/07/07 10:09:15;;;;;;;12.70;2.50;;;17.20;99.90;;;;;;6282197;22;20047;-72
2022/07/07 10:11:54;;;;;;;17.63;2.90;;;17.20;99.90;;;;;;6267885;22;20015;-73
2022/07/07 10:14:22;;;;;;;13.80;2.42;;;17.20;99.90;;;;;;6288843;22;20465;-73
2022/07/07 10:16:51;;;;;;;34.42;3.65;;;17.30;99.90;;;;;;6255051;22;20064;-73
2022/07/07 10:19:19;;;;;;;19.73;3.65;;;17.30;99.90;;;;;;6281151;22;20497;-73
2022/07/07 10:21:51;;;;;;;19.80;2.95;;;17.20;98.90;;;;;;6255733;22;20011;-74
2022/07/07 10:24:31;;;;;;;20.77;3.35;;;17.30;99.00;;;;;;6281406;22;20326;-72
2022/07/07 10:27:36;;;;;;;26.10;4.30;;;17.20;99.60;;;;;;6281024;22;20384;-74
2022/07/07 10:34:37;;;;;;;;;;;;;;;;;;;;;
2022/07/07 10:45:12;;;;;;;12.02;2.15;;;17.70;95.60;;;;;;6308325;22;20116;-74
2022/07/07 10:47:38;;;;;;;20.60;2.65;;;17.80;94.10;;;;;;6254973;22;20011;-76
2022/07/07 10:50:23;;;;;;;13.80;2.17;;;17.80;94.20;;;;;;6255600;22;20130;-75
2022/07/07 10:52:52;;;;;;;11.00;1.88;;;17.90;93.60;;;;;;6254617;22;20015;-76
2022/07/07 10:55:20;;;;;;;11.27;1.90;;;17.90;93.20;;;;;;6280477;22;20066;-74
2022/07/07 10:57:47;;;;;;;14.38;2.10;;;18.00;92.50;;;;;;6280375;22;20341;-75
2022/07/07 11:00:27;;;;;;;13.27;2.22;;;18.10;92.50;;;;;;6255000;22;20011;-73
2022/07/07 11:03:10;;;;;;;15.23;2.50;;;18.60;93.50;;;;;;6280698;22;20330;-77
2022/07/07 11:33:02;;;;;;;14.20;3.10;;;18.80;92.20;;;;;;6259069;22;20027;-72
2022/07/07 11:35:37;;;;;;;16.88;2.28;;;18.70;92.10;;;;;;6224016;22;20020;-72
2022/07/07 11:38:09;;;;;;;17.35;2.67;;;18.70;92.40;;;;;;6223912;22;20020;-72
2022/07/07 11:45:04;;;;;;;14.93;2.35;;;19.10;91.70;;;;;;5135442;27;20072;-75
2022/07/07 11:55:42;;;;;;;;;;;;;;;;;;;;;
2022/07/07 12:32:49;;;;;;;20.63;3.00;;;17.90;92.90;;;;;;4941752;29;20091;-74
2022/07/07 12:36:26;;;;;;;22.38;3.45;;;17.80;92.80;;;;;;5038381;28;20044;-75
2022/07/07 12:44:38;;;;;;;14.27;2.20;;;18.20;92.50;;;;;;4782385;30;20059;-75
2022/07/07 12:59:21;;;;;;;8.05;1.77;;;18.60;90.40;;;;;;4857785;29;20088;-75
2022/07/07 13:05:52;;;;;;;12.18;1.95;;;18.40;92.00;;;;;;4955506;29;20039;-74
2022/07/07 13:12:31;;;;;;;19.85;3.13;;;18.40;92.80;;;;;;4968625;28;20045;-74
2022/07/07 13:18:26;;;;;;;20.73;2.35;;;18.40;92.60;;;;;;4971015;28;20475;-69
2022/07/07 13:21:00;;;;;;;12.60;2.47;;;18.40;92.60;;;;;;5038738;28;20060;-75
2022/07/07 13:23:29;;;;;;;13.07;3.08;;;18.40;92.70;;;;;;5036002;28;20390;-69
2022/07/07 13:25:59;;;;;;;15.40;2.40;;;18.60;92.20;;;;;;5052506;28;20056;-70
2022/07/07 13:28:26;;;;;;;21.42;3.45;;;18.60;92.50;;;;;;5085803;28;20495;-69
2022/07/07 13:30:52;;;;;;;13.65;2.55;;;18.80;93.80;;;;;;5072612;28;20127;-71
2022/07/07 13:33:18;;;;;;;19.48;3.33;;;18.90;93.40;;;;;;5072570;28;20036;-68
2022/07/07 13:35:45;;;;;;;10.25;1.88;;;18.90;92.90;;;;;;5081985;28;20435;-69
2022/07/07 13:38:14;;;;;;;14.40;2.65;;;18.90;92.30;;;;;;5082437;28;20035;-70
2022/07/07 13:40:43;;;;;;;13.95;2.45;;;19.00;92.20;;;;;;5084969;28;20509;-70
2022/07/07 13:43:09;;;;;;;15.55;2.00;;;18.90;91.70;;;;;;5086112;28;20052;-68
2022/07/07 13:45:46;;;;;;;;;;;18.90;92.30;;;;;;5057521;28;20417;-70
2022/07/07 13:48:15;;;;;;;17.42;2.38;;;19.10;92.40;;;;;;5090744;28;19916;-69
2022/07/07 13:50:41;;;;;;;12.50;2.15;;;18.80;92.20;;;;;;5084241;28;20431;-70
2022/07/07 13:53:10;;;;;;;9.98;2.00;;;18.90;92.10;;;;;;5072741;28;20082;-69
2022/07/07 13:58:37;;;;;;;14.73;2.78;;;18.70;91.80;;;;;;5059068;28;20117;-69
2022/07/07 14:01:03;;;;;;;15.40;2.67;;;18.70;91.80;;;;;;5074742;28;20123;-70
2022/07/07 14:03:29;;;;;;;9.73;1.85;;;18.70;92.10;;;;;;5069424;28;20032;-70
2022/07/07 14:09:53;;;;;;;18.10;2.38;;;18.20;93.20;;;;;;5018815;28;20435;-71
2022/07/07 14:12:25;;;;;;;18.48;2.72;;;18.20;94.40;;;;;;5091042;28;20543;-70
2022/07/07 14:15:15;;;;;;;12.48;2.22;;;18.20;94.80;;;;;;5063023;28;20056;-69
2022/07/07 14:17:44;;;;;;;13.68;2.20;;;18.00;94.50;;;;;;5086578;28;20036;-70
2022/07/07 14:20:14;;;;;;;7.85;2.00;;;18.10;94.60;;;;;;5087905;28;20127;-70
2022/07/07 14:22:59;;;;;;;10.50;2.22;;;18.00;93.50;;;;;;5058695;28;20518;-70
2022/07/07 14:25:45;;;;;;;10.48;2.15;;;18.10;92.70;;;;;;5074338;28;20044;-69
2022/07/07 14:28:13;;;;;;;14.57;2.38;;;18.30;91.90;;;;;;5075544;28;20066;-69
2022/07/07 14:30:39;;;;;;;10.55;1.88;;;18.30;91.90;;;;;;5079542;28;20396;-68
2022/07/07 14:33:06;;;;;;;14.07;2.15;;;18.40;92.10;;;;;;5081759;28;20040;-67
2022/07/07 14:35:32;;;;;;;10.65;1.77;;;18.50;91.90;;;;;;5086524;28;20079;-67
2022/07/07 14:37:57;;;;;;;12.63;2.55;;;18.50;91.30;;;;;;5082278;28;20079;-69
2022/07/07 14:40:23;;;;;;;7.50;1.67;;;18.50;91.50;;;;;;5087403;28;20109;-67
2022/07/07 14:42:49;;;;;;;9.05;2.15;;;18.40;91.10;;;;;;5079197;28;20032;-68
2022/07/07 14:45:14;;;;;;;6.35;1.20;;;18.10;91.30;;;;;;5086716;28;20548;-68
2022/07/07 14:48:22;;;;;;;;;;;;;;;;;;;;;
2022/07/07 14:58:31;;;;;;;9.95;1.58;;;17.90;92.60;;;;;;5050669;28;20081;-75
2022/07/07 15:08:40;;;;;;;12.02;1.70;;;18.00;93.20;;;;;;5011310;28;20069;-76